Time;durP1;ratioP1;P1;durP2;ratioP2;P2;SDS_P1;SDS_P2;PMS_P1;PMS_P2;Temp;Humidity;BMP_temperature;BMP_pressure;BME280_temperature;BME280_humidity;BME280_pressure;Samples;Min_cycle;Max_cycle;Signal;HPM_P1;HPM_P2
2023/01/07 00:03:26;;;;;;;0.50;0.40;;;;;;;;;;13035568;22;20199;-85
2023/01/07 00:08:30;;;;;;;0.20;0.20;;;;;;;;;;13035901;22;20331;-85
2023/01/07 00:13:36;;;;;;;0.30;0.30;;;;;;;;;;13033372;22;20608;-83
2023/01/07 00:18:40;;;;;;;0.20;0.20;;;;;;;;;;13036619;22;20023;-83
2023/01/07 00:23:44;;;;;;;0.22;0.22;;;;;;;;;;13038080;22;20023;-85
2023/01/07 00:28:50;;;;;;;0.32;0.30;;;;;;;;;;13040962;22;20098;-83
2023/01/07 00:34:07;;;;;;;0.70;0.40;;;;;;;;;;13034039;22;20530;-85
2023/01/07 00:39:14;;;;;;;0.50;0.50;;;;;;;;;;13034919;22;20222;-84
2023/01/07 00:44:19;;;;;;;0.60;0.60;;;;;;;;;;13037724;22;20522;-84
2023/01/07 00:49:24;;;;;;;1.67;0.82;;;;;;;;;;13033867;22;20111;-84
2023/01/07 00:54:27;;;;;;;1.00;0.90;;;;;;;;;;13009585;22;20207;-85
2023/01/07 00:59:32;;;;;;;1.30;1.20;;;;;;;;;;13035530;22;20024;-85
2023/01/07 01:04:36;;;;;;;1.10;1.00;;;;;;;;;;13033444;22;20027;-82
2023/01/07 01:09:39;;;;;;;1.10;1.00;;;;;;;;;;13035293;22;20089;-81
2023/01/07 01:14:45;;;;;;;2.35;1.30;;;;;;;;;;13034908;22;20413;-81
2023/01/07 01:19:48;;;;;;;1.65;1.50;;;;;;;;;;13036926;22;20019;-85
2023/01/07 01:24:52;;;;;;;2.15;1.25;;;;;;;;;;13035024;22;20039;-84
2023/01/07 01:29:57;;;;;;;1.52;1.42;;;;;;;;;;13035244;22;20022;-82
2023/01/07 01:35:02;;;;;;;1.70;1.13;;;;;;;;;;13036224;22;20026;-84
2023/01/07 01:40:07;;;;;;;1.17;1.08;;;;;;;;;;13035329;22;20016;-82
2023/01/07 01:45:13;;;;;;;1.13;1.00;;;;;;;;;;13035102;22;20046;-85
2023/01/07 01:50:24;;;;;;;1.25;1.15;;;;;;;;;;13055912;22;20281;-85
2023/01/07 01:55:33;;;;;;;0.90;0.90;;;;;;;;;;13034410;22;20374;-84
2023/01/07 02:00:39;;;;;;;1.08;0.98;;;;;;;;;;13034753;22;20026;-83
2023/01/07 02:05:45;;;;;;;1.83;1.20;;;;;;;;;;13037711;22;20127;-84
2023/01/07 02:10:51;;;;;;;1.10;1.00;;;;;;;;;;13038447;22;20027;-84
2023/01/07 02:16:02;;;;;;;1.30;1.17;;;;;;;;;;13038105;22;20102;-83
2023/01/07 02:21:23;;;;;;;1.20;1.10;;;;;;;;;;13038054;22;20097;-82
2023/01/07 02:27:02;;;;;;;0.85;0.85;;;;;;;;;;13035494;22;20029;-84
2023/01/07 02:32:25;;;;;;;0.68;0.68;;;;;;;;;;13038020;22;20019;-83
2023/01/07 02:37:41;;;;;;;0.85;0.70;;;;;;;;;;13012366;22;20030;-85
2023/01/07 02:42:52;;;;;;;1.48;1.10;;;;;;;;;;13037620;22;20031;-84
2023/01/07 02:48:00;;;;;;;0.77;0.77;;;;;;;;;;13037947;22;20358;-83
2023/01/07 02:53:05;;;;;;;0.95;0.70;;;;;;;;;;13040255;22;20076;-85
2023/01/07 02:58:43;;;;;;;0.90;0.90;;;;;;;;;;13011163;22;20470;-84
2023/01/07 03:04:12;;;;;;;0.68;0.68;;;;;;;;;;13036263;22;20057;-84
2023/01/07 03:09:22;;;;;;;1.48;0.95;;;;;;;;;;13037545;22;20027;-84
2023/01/07 03:14:33;;;;;;;1.25;1.10;;;;;;;;;;13039792;22;20028;-84
2023/01/07 03:19:42;;;;;;;0.80;0.70;;;;;;;;;;13037981;22;20026;-85
2023/01/07 03:24:48;;;;;;;0.80;0.70;;;;;;;;;;13037729;22;20081;-83
2023/01/07 03:29:54;;;;;;;0.70;0.70;;;;;;;;;;13035715;22;20015;-84
2023/01/07 03:35:00;;;;;;;0.85;0.70;;;;;;;;;;13036635;22;20030;-85
2023/01/07 03:40:08;;;;;;;0.83;0.83;;;;;;;;;;13036904;22;20021;-83
2023/01/07 03:45:16;;;;;;;0.70;0.70;;;;;;;;;;13036192;22;20023;-82
2023/01/07 03:50:21;;;;;;;1.00;0.90;;;;;;;;;;13035529;22;20027;-84
2023/01/07 03:55:26;;;;;;;0.75;0.73;;;;;;;;;;13034750;22;20081;-84
2023/01/07 04:00:31;;;;;;;1.80;0.70;;;;;;;;;;13035850;22;20077;-85
2023/01/07 04:05:46;;;;;;;0.75;0.70;;;;;;;;;;13015660;22;20210;-85
2023/01/07 04:10:50;;;;;;;1.02;0.98;;;;;;;;;;13036557;22;20517;-85
2023/01/07 04:15:53;;;;;;;2.25;1.02;;;;;;;;;;13009976;22;20027;-85
2023/01/07 04:20:59;;;;;;;0.80;0.80;;;;;;;;;;13030591;22;20023;-85
2023/01/07 04:26:02;;;;;;;0.75;0.63;;;;;;;;;;13035380;22;20081;-85
2023/01/07 04:31:07;;;;;;;1.00;0.90;;;;;;;;;;13035339;22;20050;-84
2023/01/07 04:36:13;;;;;;;1.45;1.05;;;;;;;;;;13036163;22;20097;-85
2023/01/07 04:41:17;;;;;;;1.35;1.25;;;;;;;;;;13037759;22;20027;-82
2023/01/07 04:46:21;;;;;;;0.98;0.85;;;;;;;;;;13037269;22;20362;-85
2023/01/07 04:51:26;;;;;;;0.77;0.60;;;;;;;;;;13034707;22;20047;-84
2023/01/07 04:56:30;;;;;;;1.05;0.73;;;;;;;;;;13034385;22;20055;-83
2023/01/07 05:01:34;;;;;;;0.80;0.80;;;;;;;;;;13034388;22;20023;-82
2023/01/07 05:06:39;;;;;;;1.92;0.93;;;;;;;;;;13007600;22;20023;-84
2023/01/07 05:11:43;;;;;;;0.40;0.40;;;;;;;;;;13034971;22;20039;-83
2023/01/07 05:16:48;;;;;;;0.47;0.47;;;;;;;;;;13035459;22;20045;-84
2023/01/07 05:21:54;;;;;;;0.70;0.70;;;;;;;;;;13033655;22;20402;-83
2023/01/07 05:26:57;;;;;;;2.43;1.00;;;;;;;;;;13007828;22;20023;-83
2023/01/07 05:32:02;;;;;;;1.65;1.10;;;;;;;;;;13034341;22;20019;-84
2023/01/07 05:37:07;;;;;;;1.92;0.70;;;;;;;;;;13017823;22;20087;-82
2023/01/07 05:42:11;;;;;;;0.70;0.70;;;;;;;;;;13039555;22;20038;-84
2023/01/07 05:47:15;;;;;;;0.50;0.50;;;;;;;;;;13038668;22;20034;-85
2023/01/07 05:52:20;;;;;;;0.63;0.63;;;;;;;;;;13050442;22;20387;-84
2023/01/07 05:57:24;;;;;;;0.43;0.43;;;;;;;;;;13049923;22;20095;-85
2023/01/07 06:02:27;;;;;;;0.40;0.40;;;;;;;;;;13037418;22;20092;-82
2023/01/07 06:07:32;;;;;;;0.82;0.60;;;;;;;;;;13037887;22;20027;-85
2023/01/07 06:12:35;;;;;;;1.05;0.90;;;;;;;;;;13012658;22;20414;-81
2023/01/07 06:17:39;;;;;;;0.68;0.68;;;;;;;;;;13036464;22;20141;-85
2023/01/07 06:22:44;;;;;;;0.80;0.70;;;;;;;;;;13036958;22;20034;-83
2023/01/07 06:27:47;;;;;;;0.90;0.73;;;;;;;;;;13037525;22;20056;-84
2023/01/07 06:32:51;;;;;;;0.70;0.70;;;;;;;;;;13038477;22;20093;-83
2023/01/07 06:37:56;;;;;;;0.68;0.52;;;;;;;;;;13017616;22;20624;-85
2023/01/07 06:42:59;;;;;;;0.68;0.68;;;;;;;;;;12999011;22;20024;-88
2023/01/07 06:48:03;;;;;;;1.65;0.65;;;;;;;;;;13000178;22;20422;-84
2023/01/07 06:53:08;;;;;;;0.50;0.50;;;;;;;;;;13017506;22;20023;-87
2023/01/07 06:58:11;;;;;;;2.22;0.90;;;;;;;;;;13015951;22;20047;-86
2023/01/07 07:03:15;;;;;;;0.77;0.52;;;;;;;;;;13024902;22;20134;-87
2023/01/07 07:08:19;;;;;;;0.77;0.77;;;;;;;;;;13016085;22;20363;-87
2023/01/07 07:13:23;;;;;;;0.77;0.50;;;;;;;;;;13018141;22;20450;-87
2023/01/07 07:18:27;;;;;;;0.35;0.35;;;;;;;;;;13014334;22;20098;-86
2023/01/07 07:23:31;;;;;;;0.82;0.57;;;;;;;;;;13011374;22;20030;-87
2023/01/07 07:28:35;;;;;;;0.50;0.50;;;;;;;;;;13011669;22;20428;-87
2023/01/07 07:33:39;;;;;;;0.68;0.60;;;;;;;;;;13009373;22;20343;-85
2023/01/07 07:38:43;;;;;;;0.40;0.40;;;;;;;;;;13008501;22;20042;-85
2023/01/07 07:43:47;;;;;;;0.88;0.50;;;;;;;;;;13007885;22;20030;-86
2023/01/07 07:48:51;;;;;;;0.65;0.65;;;;;;;;;;13007132;22;20019;-87
2023/01/07 07:53:55;;;;;;;0.57;0.47;;;;;;;;;;13012204;22;20042;-86
2023/01/07 07:58:59;;;;;;;1.10;0.70;;;;;;;;;;13015884;22;20418;-87
2023/01/07 08:04:05;;;;;;;0.55;0.55;;;;;;;;;;13011645;22;20034;-86
2023/01/07 08:09:11;;;;;;;0.52;0.45;;;;;;;;;;13011313;22;20027;-86
2023/01/07 08:14:14;;;;;;;0.67;0.60;;;;;;;;;;13012249;22;20034;-87
2023/01/07 08:19:17;;;;;;;0.75;0.45;;;;;;;;;;13018390;22;20050;-90
2023/01/07 08:24:22;;;;;;;0.65;0.65;;;;;;;;;;13014825;22;20544;-86
2023/01/07 08:29:26;;;;;;;0.52;0.40;;;;;;;;;;13038115;22;20047;-87
2023/01/07 08:34:29;;;;;;;0.55;0.55;;;;;;;;;;13041011;22;20422;-90
2023/01/07 08:39:35;;;;;;;0.90;0.90;;;;;;;;;;13041840;22;20046;-86
2023/01/07 08:44:38;;;;;;;0.73;0.70;;;;;;;;;;13032452;22;20102;-84
2023/01/07 08:49:42;;;;;;;0.80;0.80;;;;;;;;;;13002188;22;20099;-84
2023/01/07 08:54:47;;;;;;;0.93;0.77;;;;;;;;;;12997697;22;20019;-84
2023/01/07 08:59:50;;;;;;;0.57;0.57;;;;;;;;;;13003080;22;20015;-85
2023/01/07 09:04:53;;;;;;;0.73;0.63;;;;;;;;;;12998386;22;20023;-84
2023/01/07 09:09:59;;;;;;;2.47;0.70;;;;;;;;;;13055699;22;20015;-91
2023/01/07 09:15:03;;;;;;;0.50;0.40;;;;;;;;;;13039299;22;20019;-86
2023/01/07 09:20:08;;;;;;;0.45;0.40;;;;;;;;;;13013445;22;20016;-89
2023/01/07 09:25:13;;;;;;;0.52;0.40;;;;;;;;;;13040020;22;20027;-87
2023/01/07 09:30:17;;;;;;;0.85;0.50;;;;;;;;;;13039149;22;20027;-87
2023/01/07 09:35:20;;;;;;;0.70;0.40;;;;;;;;;;13038779;22;20019;-89
2023/01/07 09:40:28;;;;;;;0.60;0.45;;;;;;;;;;13037346;22;20030;-86
2023/01/07 09:45:35;;;;;;;0.77;0.60;;;;;;;;;;13056236;22;20030;-87
2023/01/07 09:50:46;;;;;;;0.50;0.50;;;;;;;;;;13037836;22;20023;-89
2023/01/07 09:55:53;;;;;;;0.40;0.40;;;;;;;;;;13039644;22;20050;-92
2023/01/07 10:01:03;;;;;;;1.17;1.00;;;;;;;;;;13038029;22;20054;-88
2023/01/07 10:06:12;;;;;;;1.23;0.70;;;;;;;;;;13038352;22;20019;-87
2023/01/07 10:11:28;;;;;;;0.85;0.70;;;;;;;;;;13007898;22;20035;-84
2023/01/07 10:16:38;;;;;;;2.35;1.10;;;;;;;;;;12994332;22;20026;-85
2023/01/07 10:21:46;;;;;;;0.50;0.50;;;;;;;;;;13000691;22;20625;-84
2023/01/07 10:26:53;;;;;;;0.88;0.70;;;;;;;;;;13004585;22;20023;-85
2023/01/07 10:32:08;;;;;;;1.00;0.50;;;;;;;;;;12997783;22;20069;-85
2023/01/07 10:37:19;;;;;;;0.68;0.68;;;;;;;;;;13003863;22;20027;-84
2023/01/07 10:42:28;;;;;;;0.95;0.60;;;;;;;;;;12977560;22;20022;-86
2023/01/07 10:47:44;;;;;;;0.50;0.40;;;;;;;;;;13006253;22;20035;-85
2023/01/07 10:52:55;;;;;;;0.30;0.30;;;;;;;;;;13007976;22;20073;-85
2023/01/07 10:58:00;;;;;;;0.73;0.50;;;;;;;;;;13004714;22;20085;-84
2023/01/07 11:03:03;;;;;;;0.88;0.60;;;;;;;;;;12998467;22;20134;-84
2023/01/07 11:08:13;;;;;;;0.77;0.70;;;;;;;;;;12978287;22;20682;-85
2023/01/07 11:13:23;;;;;;;1.38;0.73;;;;;;;;;;12997211;22;20934;-85
2023/01/07 11:18:30;;;;;;;0.75;0.60;;;;;;;;;;13001424;22;20035;-85
2023/01/07 11:23:36;;;;;;;1.92;0.45;;;;;;;;;;12994832;22;20023;-85
2023/01/07 11:28:51;;;;;;;0.90;0.53;;;;;;;;;;13000871;22;20023;-84
2023/01/07 11:33:54;;;;;;;1.20;0.82;;;;;;;;;;12999296;22;20094;-85
2023/01/07 11:39:10;;;;;;;0.47;0.47;;;;;;;;;;12998940;22;20107;-85
2023/01/07 11:44:17;;;;;;;0.40;0.40;;;;;;;;;;13002652;22;20472;-85
2023/01/07 11:49:25;;;;;;;0.60;0.50;;;;;;;;;;12994822;22;20026;-87
2023/01/07 11:54:31;;;;;;;0.80;0.65;;;;;;;;;;13042466;22;20528;-87
2023/01/07 11:59:37;;;;;;;0.93;0.60;;;;;;;;;;13040290;22;20023;-87
2023/01/07 12:04:40;;;;;;;0.60;0.60;;;;;;;;;;13040313;22;20069;-87
2023/01/07 12:09:45;;;;;;;0.50;0.50;;;;;;;;;;13038887;22;20038;-87
2023/01/07 12:14:53;;;;;;;0.90;0.68;;;;;;;;;;13016535;22;20043;-92
2023/01/07 12:20:23;;;;;;;1.10;0.80;;;;;;;;;;13032050;22;20098;-84
2023/01/07 12:25:35;;;;;;;1.85;1.33;;;;;;;;;;13000023;22;20051;-85
2023/01/07 12:30:57;;;;;;;3.15;1.80;;;;;;;;;;12994219;22;20110;-85
2023/01/07 12:36:08;;;;;;;1.67;1.35;;;;;;;;;;13033092;22;20158;-88
2023/01/07 12:41:19;;;;;;;1.50;1.15;;;;;;;;;;13014432;22;20046;-87
2023/01/07 12:46:26;;;;;;;1.25;0.98;;;;;;;;;;13018476;22;20027;-84
2023/01/07 12:51:35;;;;;;;1.80;1.23;;;;;;;;;;13030590;22;20077;-87
2023/01/07 12:56:43;;;;;;;1.15;0.93;;;;;;;;;;13043911;22;20027;-87
2023/01/07 13:01:54;;;;;;;4.78;1.70;;;;;;;;;;13038970;22;20051;-88
2023/01/07 13:07:04;;;;;;;2.15;1.05;;;;;;;;;;13054666;22;20054;-87
2023/01/07 13:17:35;;;;;;;1.00;0.68;;;;;;;;;;13014639;22;20102;-86
2023/01/07 13:22:43;;;;;;;1.10;0.63;;;;;;;;;;13014312;22;20022;-87
2023/01/07 13:28:13;;;;;;;0.90;0.80;;;;;;;;;;13036272;22;20023;-88
2023/01/07 13:33:24;;;;;;;0.75;0.70;;;;;;;;;;13040905;22;20023;-90
2023/01/07 13:39:04;;;;;;;1.05;0.70;;;;;;;;;;13045910;22;20137;-87
2023/01/07 13:44:33;;;;;;;0.95;0.90;;;;;;;;;;13003264;22;20054;-87
2023/01/07 13:49:38;;;;;;;1.20;0.80;;;;;;;;;;13038949;22;20106;-87
2023/01/07 13:54:55;;;;;;;1.27;1.10;;;;;;;;;;13015170;22;20020;-87
2023/01/07 14:00:00;;;;;;;1.35;1.15;;;;;;;;;;13034848;22;20031;-88
2023/01/07 14:05:24;;;;;;;1.65;1.13;;;;;;;;;;13045530;22;20034;-88
2023/01/07 14:10:30;;;;;;;1.98;1.00;;;;;;;;;;13016648;22;20122;-93
2023/01/07 14:15:58;;;;;;;1.92;0.80;;;;;;;;;;13048885;22;20023;-89
2023/01/07 14:21:15;;;;;;;0.95;0.88;;;;;;;;;;13042216;22;20234;-88
2023/01/07 14:26:23;;;;;;;1.33;1.20;;;;;;;;;;13020315;22;20038;-88
2023/01/07 14:31:31;;;;;;;1.15;1.05;;;;;;;;;;13044286;22;20027;-87
2023/01/07 14:37:13;;;;;;;2.40;0.90;;;;;;;;;;13048942;22;20055;-93
2023/01/07 14:42:40;;;;;;;1.05;0.90;;;;;;;;;;13059253;22;20023;-85
2023/01/07 14:47:54;;;;;;;1.90;1.00;;;;;;;;;;13008734;22;20027;-85
2023/01/07 14:53:32;;;;;;;1.40;1.20;;;;;;;;;;13011453;22;20023;-85
2023/01/07 14:58:44;;;;;;;1.25;0.93;;;;;;;;;;13006422;22;20360;-85
2023/01/07 15:03:57;;;;;;;1.75;1.08;;;;;;;;;;13030670;22;20019;-87
2023/01/07 15:20:04;;;;;;;2.47;1.50;;;;;;;;;;13026231;22;20403;-88
2023/01/07 15:25:20;;;;;;;2.30;1.77;;;;;;;;;;13047318;22;20065;-90
2023/01/07 15:30:39;;;;;;;2.35;1.10;;;;;;;;;;13047977;22;20373;-87
2023/01/07 15:35:44;;;;;;;3.20;0.90;;;;;;;;;;13046558;22;20077;-87
2023/01/07 15:40:53;;;;;;;1.00;0.90;;;;;;;;;;13036634;22;20019;-92
2023/01/07 15:46:04;;;;;;;1.85;1.10;;;;;;;;;;13060378;22;20015;-90
2023/01/07 15:51:15;;;;;;;3.33;1.63;;;;;;;;;;13050486;22;20019;-88
2023/01/07 15:56:23;;;;;;;1.88;1.48;;;;;;;;;;13011209;22;20019;-85
2023/01/07 16:01:27;;;;;;;1.20;1.10;;;;;;;;;;13005346;22;20027;-85
2023/01/07 16:06:38;;;;;;;1.27;1.00;;;;;;;;;;13022367;22;20077;-85
2023/01/07 16:11:43;;;;;;;1.48;1.20;;;;;;;;;;13027327;22;20057;-85
2023/01/07 16:16:46;;;;;;;1.30;1.08;;;;;;;;;;13027702;22;20031;-86
2023/01/07 16:21:53;;;;;;;1.67;1.23;;;;;;;;;;13027849;22;20390;-83
2023/01/07 16:27:01;;;;;;;2.17;1.30;;;;;;;;;;13043581;22;20016;-83
2023/01/07 16:32:07;;;;;;;1.48;1.08;;;;;;;;;;13028746;22;20030;-83
2023/01/07 16:37:15;;;;;;;1.52;1.27;;;;;;;;;;13029803;22;20516;-81
2023/01/07 16:42:22;;;;;;;1.10;1.00;;;;;;;;;;13005337;22;20027;-81
2023/01/07 16:47:27;;;;;;;1.15;1.00;;;;;;;;;;13008325;22;20106;-81
2023/01/07 16:52:33;;;;;;;1.50;1.25;;;;;;;;;;13005600;22;20023;-81
2023/01/07 16:57:43;;;;;;;2.87;1.27;;;;;;;;;;13003219;22;20122;-81
2023/01/07 17:02:53;;;;;;;2.78;1.50;;;;;;;;;;13024543;22;20124;-81
2023/01/07 17:07:58;;;;;;;3.72;1.85;;;;;;;;;;13008769;22;20062;-80
2023/01/07 17:13:04;;;;;;;2.55;1.50;;;;;;;;;;12991256;22;20023;-81
2023/01/07 17:18:29;;;;;;;2.05;1.35;;;;;;;;;;13018654;22;20019;-80
2023/01/07 17:23:39;;;;;;;1.50;1.20;;;;;;;;;;13016074;22;20020;-81
2023/01/07 17:28:47;;;;;;;1.27;0.82;;;;;;;;;;12999485;22;20126;-81
2023/01/07 17:33:52;;;;;;;1.60;0.93;;;;;;;;;;13017974;22;20098;-81
2023/01/07 17:38:56;;;;;;;1.05;0.90;;;;;;;;;;13009933;22;20021;-81
2023/01/07 17:44:01;;;;;;;1.25;1.00;;;;;;;;;;13046205;22;20023;-82
2023/01/07 17:49:05;;;;;;;1.53;1.07;;;;;;;;;;13027832;22;20023;-81
2023/01/07 17:54:13;;;;;;;4.05;2.28;;;;;;;;;;13013075;22;20728;-81
2023/01/07 17:59:20;;;;;;;3.15;1.83;;;;;;;;;;13041086;22;20394;-82
2023/01/07 18:04:24;;;;;;;1.52;1.20;;;;;;;;;;13028931;22;20038;-81
2023/01/07 18:09:27;;;;;;;1.65;1.40;;;;;;;;;;13019597;22;20171;-81
2023/01/07 18:14:32;;;;;;;3.50;2.40;;;;;;;;;;13011806;22;20030;-81
2023/01/07 18:19:36;;;;;;;2.70;2.20;;;;;;;;;;13020599;22;20023;-81
2023/01/07 18:24:39;;;;;;;2.05;1.35;;;;;;;;;;13010118;22;20094;-80
2023/01/07 18:29:44;;;;;;;2.47;1.90;;;;;;;;;;13022246;22;20027;-81
2023/01/07 18:34:48;;;;;;;1.92;1.63;;;;;;;;;;13025891;22;20131;-80
2023/01/07 18:40:00;;;;;;;2.05;1.40;;;;;;;;;;13010783;22;20027;-80
2023/01/07 18:45:06;;;;;;;1.85;1.40;;;;;;;;;;13020383;22;20110;-80
2023/01/07 18:50:10;;;;;;;2.05;1.58;;;;;;;;;;13016871;22;20023;-81
2023/01/07 18:55:16;;;;;;;2.58;1.70;;;;;;;;;;13026863;22;20075;-80
2023/01/07 19:00:21;;;;;;;3.30;2.17;;;;;;;;;;13018995;22;20031;-80
2023/01/07 19:05:24;;;;;;;2.75;2.22;;;;;;;;;;13020323;22;20024;-80
2023/01/07 19:10:28;;;;;;;2.90;2.03;;;;;;;;;;13023200;22;20464;-80
2023/01/07 19:15:32;;;;;;;2.70;1.60;;;;;;;;;;13024583;22;20042;-81
2023/01/07 19:20:36;;;;;;;2.58;1.70;;;;;;;;;;13009244;22;20030;-81
2023/01/07 19:25:39;;;;;;;2.00;1.23;;;;;;;;;;13012150;22;20024;-80
2023/01/07 19:30:44;;;;;;;2.83;2.00;;;;;;;;;;13006893;22;20102;-80
2023/01/07 19:35:48;;;;;;;1.73;1.50;;;;;;;;;;13005396;22;20136;-80
2023/01/07 19:40:51;;;;;;;2.20;1.60;;;;;;;;;;13006805;22;20523;-80
2023/01/07 19:45:57;;;;;;;2.47;1.88;;;;;;;;;;12980734;22;20027;-80
2023/01/07 19:51:03;;;;;;;1.33;1.23;;;;;;;;;;13007534;22;20019;-80
2023/01/07 19:56:08;;;;;;;1.48;1.17;;;;;;;;;;13011653;22;20019;-81
2023/01/07 20:01:16;;;;;;;2.17;1.70;;;;;;;;;;13009334;22;20606;-80
2023/01/07 20:06:22;;;;;;;1.65;1.42;;;;;;;;;;13011623;22;20015;-80
2023/01/07 20:11:25;;;;;;;1.30;1.13;;;;;;;;;;12998707;22;20027;-81
2023/01/07 20:16:30;;;;;;;1.52;1.35;;;;;;;;;;13009713;22;20016;-81
2023/01/07 20:21:34;;;;;;;3.08;1.95;;;;;;;;;;13010791;22;20061;-82
2023/01/07 20:26:37;;;;;;;2.33;1.45;;;;;;;;;;13010801;22;20015;-81
2023/01/07 20:31:43;;;;;;;2.20;1.42;;;;;;;;;;13033195;22;20015;-81
2023/01/07 20:36:46;;;;;;;1.73;1.40;;;;;;;;;;13013344;22;20456;-82
2023/01/07 20:41:49;;;;;;;1.35;1.15;;;;;;;;;;13009632;22;20031;-82
2023/01/07 20:46:54;;;;;;;1.35;1.17;;;;;;;;;;13030262;22;20125;-80
2023/01/07 20:51:57;;;;;;;1.48;1.17;;;;;;;;;;13012171;22;20015;-82
2023/01/07 20:57:01;;;;;;;0.88;0.85;;;;;;;;;;13032984;22;20720;-82
2023/01/07 21:02:06;;;;;;;1.38;1.27;;;;;;;;;;13010128;22;20025;-81
2023/01/07 21:07:10;;;;;;;1.50;1.20;;;;;;;;;;13010844;22;20026;-82
2023/01/07 21:12:13;;;;;;;1.35;1.20;;;;;;;;;;13011664;22;20019;-82
2023/01/07 21:17:18;;;;;;;4.90;1.55;;;;;;;;;;12988582;22;20094;-81
2023/01/07 21:22:21;;;;;;;3.45;2.13;;;;;;;;;;13013086;22;20467;-81
2023/01/07 21:27:24;;;;;;;2.00;1.50;;;;;;;;;;13006154;22;20054;-80
2023/01/07 21:32:29;;;;;;;3.45;1.83;;;;;;;;;;13024590;22;20029;-82
2023/01/07 21:37:33;;;;;;;1.88;1.65;;;;;;;;;;13005358;22;20029;-81
2023/01/07 21:42:37;;;;;;;2.67;1.95;;;;;;;;;;13004729;22;20024;-82
2023/01/07 21:47:42;;;;;;;3.28;1.70;;;;;;;;;;13002477;22;20029;-82
2023/01/07 21:52:45;;;;;;;2.83;1.98;;;;;;;;;;13001961;22;20027;-81
2023/01/07 21:57:49;;;;;;;3.92;2.20;;;;;;;;;;13008931;22;20026;-81
2023/01/07 22:02:54;;;;;;;2.97;1.95;;;;;;;;;;13009178;22;20098;-80
2023/01/07 22:07:57;;;;;;;2.28;1.38;;;;;;;;;;13023618;22;20026;-82
2023/01/07 22:13:01;;;;;;;2.53;1.98;;;;;;;;;;13006968;22;20063;-81
2023/01/07 22:18:06;;;;;;;1.95;1.73;;;;;;;;;;13008790;22;20050;-81
2023/01/07 22:23:14;;;;;;;3.28;2.10;;;;;;;;;;13005012;22;20106;-82
2023/01/07 22:28:21;;;;;;;3.05;2.17;;;;;;;;;;13012343;22;20027;-82
2023/01/07 22:33:26;;;;;;;1.95;1.40;;;;;;;;;;13025645;22;20019;-81
2023/01/07 22:38:30;;;;;;;1.83;1.30;;;;;;;;;;12984900;22;20031;-83
2023/01/07 22:43:34;;;;;;;1.23;1.13;;;;;;;;;;13031959;22;20591;-81
2023/01/07 22:48:39;;;;;;;1.63;1.35;;;;;;;;;;13030064;22;20740;-82
2023/01/07 22:53:43;;;;;;;2.67;1.60;;;;;;;;;;13019622;22;20034;-83
2023/01/07 22:58:47;;;;;;;3.85;2.20;;;;;;;;;;13019344;22;20075;-80
2023/01/07 23:03:51;;;;;;;5.70;2.33;;;;;;;;;;13031747;22;20034;-80
2023/01/07 23:08:55;;;;;;;3.75;2.03;;;;;;;;;;13020640;22;20043;-82
2023/01/07 23:13:58;;;;;;;3.55;1.90;;;;;;;;;;13023521;22;20054;-81
2023/01/07 23:19:03;;;;;;;2.33;1.55;;;;;;;;;;12998700;22;20039;-81
2023/01/07 23:24:07;;;;;;;1.30;1.10;;;;;;;;;;13023777;22;20472;-81
2023/01/07 23:29:10;;;;;;;1.40;1.02;;;;;;;;;;13007162;22;20019;-80
2023/01/07 23:34:16;;;;;;;1.45;1.05;;;;;;;;;;13008897;22;20403;-81
2023/01/07 23:39:21;;;;;;;1.80;1.25;;;;;;;;;;13009898;22;20534;-80
2023/01/07 23:44:24;;;;;;;0.98;0.80;;;;;;;;;;13022568;22;20029;-83
2023/01/07 23:49:30;;;;;;;1.17;1.08;;;;;;;;;;13013213;22;20023;-83
2023/01/07 23:54:34;;;;;;;1.45;1.23;;;;;;;;;;13013808;22;20023;-82
2023/01/07 23:59:37;;;;;;;2.17;1.23;;;;;;;;;;13006784;22;20400;-82
